sensor_id;sensor_type;location;lat;lon;timestamp;pressure;altitude;pressure_sealevel;temperature;humidity
48077;BME280;33854;57.708;12.008;2023-04-02T00:07:51;101549.56;;;-0.80;100.00
48077;BME280;33854;57.708;12.008;2023-04-02T00:10:31;101551.16;;;-0.89;100.00
48077;BME280;33854;57.708;12.008;2023-04-02T00:15:37;101552.88;;;-0.88;100.00
48077;BME280;33854;57.708;12.008;2023-04-02T00:18:04;101557.13;;;-0.90;100.00
48077;BME280;33854;57.708;12.008;2023-04-02T00:20:31;101558.78;;;-0.95;100.00
48077;BME280;33854;57.708;12.008;2023-04-02T00:22:57;101562.16;;;-0.96;100.00
48077;BME280;33854;57.708;12.008;2023-04-02T00:25:26;101563.06;;;-0.93;100.00
48077;BME280;33854;57.708;12.008;2023-04-02T00:27:53;101564.78;;;-0.92;100.00
48077;BME280;33854;57.708;12.008;2023-04-02T00:30:19;101561.28;;;-0.97;100.00
48077;BME280;33854;57.708;12.008;2023-04-02T00:32:44;101580.13;;;-0.93;100.00
48077;BME280;33854;57.708;12.008;2023-04-02T00:35:30;101569.91;;;-0.92;100.00
48077;BME280;33854;57.708;12.008;2023-04-02T00:37:56;101576.66;;;-0.97;100.00
48077;BME280;33854;57.708;12.008;2023-04-02T00:40:27;101544.78;;;-1.19;100.00
48077;BME280;33854;57.708;12.008;2023-04-02T00:42:56;101552.50;;;-1.14;100.00
48077;BME280;33854;57.708;12.008;2023-04-02T00:45:25;101568.84;;;-1.06;100.00
48077;BME280;33854;57.708;12.008;2023-04-02T00:47:53;101563.72;;;-1.06;100.00
48077;BME280;33854;57.708;12.008;2023-04-02T00:52:50;101571.41;;;-1.06;100.00
48077;BME280;33854;57.708;12.008;2023-04-02T00:55:22;101568.84;;;-1.07;100.00
48077;BME280;33854;57.708;12.008;2023-04-02T00:57:50;101564.53;;;-1.10;100.00
48077;BME280;33854;57.708;12.008;2023-04-02T01:00:23;101569.63;;;-1.11;100.00
48077;BME280;33854;57.708;12.008;2023-04-02T01:03:23;101566.13;;;-1.18;100.00
48077;BME280;33854;57.708;12.008;2023-04-02T01:06:12;101554.09;;;-1.24;100.00
48077;BME280;33854;57.708;12.008;2023-04-02T01:08:47;101541.25;;;-1.25;100.00
48077;BME280;33854;57.708;12.008;2023-04-02T01:22:21;101488.19;;;-1.35;100.00
48077;BME280;33854;57.708;12.008;2023-04-02T01:24:56;101495.94;;;-1.31;100.00
48077;BME280;33854;57.708;12.008;2023-04-02T01:27:23;101492.53;;;-1.30;100.00
48077;BME280;33854;57.708;12.008;2023-04-02T01:29:56;101498.53;;;-1.28;100.00
48077;BME280;33854;57.708;12.008;2023-04-02T01:32:25;101501.94;;;-1.29;100.00
48077;BME280;33854;57.708;12.008;2023-04-02T01:34:52;101478.72;;;-1.41;100.00
48077;BME280;33854;57.708;12.008;2023-04-02T01:45:39;101495.06;;;-1.33;100.00
48077;BME280;33854;57.708;12.008;2023-04-02T01:48:17;101489.06;;;-1.33;100.00
48077;BME280;33854;57.708;12.008;2023-04-02T01:50:44;101500.09;;;-1.37;100.00
48077;BME280;33854;57.708;12.008;2023-04-02T01:53:14;101507.78;;;-1.39;100.00
48077;BME280;33854;57.708;12.008;2023-04-02T01:55:45;101492.38;;;-1.40;100.00
48077;BME280;33854;57.708;12.008;2023-04-02T01:58:13;101484.69;;;-1.42;100.00
48077;BME280;33854;57.708;12.008;2023-04-02T02:00:44;101483.81;;;-1.44;100.00
48077;BME280;33854;57.708;12.008;2023-04-02T02:03:11;101477.81;;;-1.43;100.00
48077;BME280;33854;57.708;12.008;2023-04-02T02:05:37;101482.94;;;-1.44;100.00
48077;BME280;33854;57.708;12.008;2023-04-02T02:08:02;101470.00;;;-1.53;100.00
48077;BME280;33854;57.708;12.008;2023-04-02T02:10:34;101465.75;;;-1.51;100.00
48077;BME280;33854;57.708;12.008;2023-04-02T02:13:00;101454.59;;;-1.55;100.00
48077;BME280;33854;57.708;12.008;2023-04-02T02:15:27;101447.78;;;-1.56;100.00
48077;BME280;33854;57.708;12.008;2023-04-02T02:17:57;101446.09;;;-1.55;100.00
48077;BME280;33854;57.708;12.008;2023-04-02T02:20:25;101435.81;;;-1.58;100.00
48077;BME280;33854;57.708;12.008;2023-04-02T02:22:52;101434.06;;;-1.61;100.00
48077;BME280;33854;57.708;12.008;2023-04-02T02:25:19;101424.63;;;-1.63;100.00
48077;BME280;33854;57.708;12.008;2023-04-02T02:27:47;101408.34;;;-1.68;100.00
48077;BME280;33854;57.708;12.008;2023-04-02T02:30:21;101407.47;;;-1.70;100.00
48077;BME280;33854;57.708;12.008;2023-04-02T02:35:40;101422.81;;;-1.70;100.00
48077;BME280;33854;57.708;12.008;2023-04-02T02:38:24;101404.03;;;-1.71;100.00
48077;BME280;33854;57.708;12.008;2023-04-02T02:40:53;101401.53;;;-1.69;100.00
48077;BME280;33854;57.708;12.008;2023-04-02T02:43:22;101415.09;;;-1.72;100.00
48077;BME280;33854;57.708;12.008;2023-04-02T02:45:49;101415.97;;;-1.73;100.00
48077;BME280;33854;57.708;12.008;2023-04-02T02:48:17;101422.78;;;-1.72;100.00
48077;BME280;33854;57.708;12.008;2023-04-02T02:50:44;101415.06;;;-1.77;100.00
48077;BME280;33854;57.708;12.008;2023-04-02T02:53:22;101421.84;;;-1.79;100.00
48077;BME280;33854;57.708;12.008;2023-04-02T02:55:54;101419.22;;;-1.85;100.00
48077;BME280;33854;57.708;12.008;2023-04-02T02:58:24;101398.59;;;-1.92;100.00
48077;BME280;33854;57.708;12.008;2023-04-02T03:00:52;101382.34;;;-1.97;100.00
48077;BME280;33854;57.708;12.008;2023-04-02T03:03:20;101369.50;;;-2.00;100.00
48077;BME280;33854;57.708;12.008;2023-04-02T03:06:03;101355.00;;;-2.01;100.00
48077;BME280;33854;57.708;12.008;2023-04-02T03:08:36;101319.97;;;-2.07;100.00
48077;BME280;33854;57.708;12.008;2023-04-02T03:11:15;101273.88;;;-2.11;100.00
48077;BME280;33854;57.708;12.008;2023-04-02T03:13:45;101220.13;;;-2.16;100.00
48077;BME280;33854;57.708;12.008;2023-04-02T03:16:19;101181.72;;;-2.17;100.00
48077;BME280;33854;57.708;12.008;2023-04-02T03:24:00;101101.44;;;-2.32;100.00
48077;BME280;33854;57.708;12.008;2023-04-02T03:26:37;101070.78;;;-2.32;100.00
48077;BME280;33854;57.708;12.008;2023-04-02T03:29:16;101043.44;;;-2.39;100.00
48077;BME280;33854;57.708;12.008;2023-04-02T03:32:19;101006.75;;;-2.42;100.00
48077;BME280;33854;57.708;12.008;2023-04-02T03:35:35;100992.22;;;-2.46;100.00
48077;BME280;33854;57.708;12.008;2023-04-02T03:38:01;100969.13;;;-2.55;100.00
48077;BME280;33854;57.708;12.008;2023-04-02T03:40:38;100942.81;;;-2.50;100.00
48077;BME280;33854;57.708;12.008;2023-04-02T03:43:13;100925.75;;;-2.51;100.00
48077;BME280;33854;57.708;12.008;2023-04-02T03:45:48;100900.88;;;-2.67;100.00
48077;BME280;33854;57.708;12.008;2023-04-02T03:48:37;100893.31;;;-2.58;100.00
48077;BME280;33854;57.708;12.008;2023-04-02T03:51:12;100887.34;;;-2.61;100.00
48077;BME280;33854;57.708;12.008;2023-04-02T03:53:38;100879.63;;;-2.64;100.00
48077;BME280;33854;57.708;12.008;2023-04-02T03:56:05;100865.09;;;-2.68;100.00
48077;BME280;33854;57.708;12.008;2023-04-02T03:58:37;100860.81;;;-2.71;100.00
48077;BME280;33854;57.708;12.008;2023-04-02T04:01:14;100859.97;;;-2.71;100.00
48077;BME280;33854;57.708;12.008;2023-04-02T04:03:42;100853.97;;;-2.76;100.00
48077;BME280;33854;57.708;12.008;2023-04-02T04:08:55;100820.56;;;-2.95;100.00
48077;BME280;33854;57.708;12.008;2023-04-02T04:11:31;100841.06;;;-2.89;100.00
48077;BME280;33854;57.708;12.008;2023-04-02T04:20:16;100857.22;;;-2.91;100.00
48077;BME280;33854;57.708;12.008;2023-04-02T04:22:47;100849.53;;;-2.94;100.00
48077;BME280;33854;57.708;12.008;2023-04-02T04:25:23;100874.16;;;-2.99;100.00
48077;BME280;33854;57.708;12.008;2023-04-02T04:30:28;100908.09;;;-3.08;100.00
48077;BME280;33854;57.708;12.008;2023-04-02T04:33:02;100907.28;;;-3.04;100.00
48077;BME280;33854;57.708;12.008;2023-04-02T04:35:32;100891.94;;;-3.08;100.00
48077;BME280;33854;57.708;12.008;2023-04-02T04:38:25;100903.00;;;-3.06;100.00
48077;BME280;33854;57.708;12.008;2023-04-02T04:40:55;100923.47;;;-3.03;100.00
48077;BME280;33854;57.708;12.008;2023-04-02T04:46:03;100933.78;;;-2.94;100.00
48077;BME280;33854;57.708;12.008;2023-04-02T04:49:01;100978.03;;;-2.97;100.00
48077;BME280;33854;57.708;12.008;2023-04-02T04:51:36;100978.03;;;-2.97;100.00
48077;BME280;33854;57.708;12.008;2023-04-02T04:54:03;100962.78;;;-2.89;100.00
48077;BME280;33854;57.708;12.008;2023-04-02T04:56:30;100959.44;;;-2.83;100.00
48077;BME280;33854;57.708;12.008;2023-04-02T04:59:16;100973.97;;;-2.78;100.00
48077;BME280;33854;57.708;12.008;2023-04-02T05:01:49;100975.72;;;-2.77;100.00
48077;BME280;33854;57.708;12.008;2023-04-02T05:04:25;100985.09;;;-2.76;100.00
48077;BME280;33854;57.708;12.008;2023-04-02T05:07:06;101011.63;;;-2.65;100.00
48077;BME280;33854;57.708;12.008;2023-04-02T05:12:41;101049.91;;;-2.68;100.00
48077;BME280;33854;57.708;12.008;2023-04-02T05:15:37;101091.72;;;-2.61;100.00
48077;BME280;33854;57.708;12.008;2023-04-02T05:18:31;101101.94;;;-2.60;100.00
48077;BME280;33854;57.708;12.008;2023-04-02T05:23:41;101143.78;;;-2.53;100.00
48077;BME280;33854;57.708;12.008;2023-04-02T05:26:20;101166.00;;;-2.48;100.00
48077;BME280;33854;57.708;12.008;2023-04-02T05:29:05;101192.53;;;-2.40;100.00
48077;BME280;33854;57.708;12.008;2023-04-02T05:32:05;101224.97;;;-2.36;100.00
48077;BME280;33854;57.708;12.008;2023-04-02T05:34:35;101244.66;;;-2.28;100.00
48077;BME280;33854;57.708;12.008;2023-04-02T05:37:04;101246.34;;;-2.31;100.00
48077;BME280;33854;57.708;12.008;2023-04-02T05:39:29;101286.56;;;-2.17;100.00
48077;BME280;33854;57.708;12.008;2023-04-02T05:42:14;101324.22;;;-2.07;100.00
48077;BME280;33854;57.708;12.008;2023-04-02T05:44:54;101347.38;;;-1.98;100.00
48077;BME280;33854;57.708;12.008;2023-04-02T05:47:24;101377.31;;;-1.93;100.00
48077;BME280;33854;57.708;12.008;2023-04-02T05:52:26;101431.19;;;-1.82;100.00
48077;BME280;33854;57.708;12.008;2023-04-02T05:54:58;101460.44;;;-1.66;100.00
48077;BME280;33854;57.708;12.008;2023-04-02T05:57:32;101491.22;;;-1.60;100.00
48077;BME280;33854;57.708;12.008;2023-04-02T06:00:04;101507.56;;;-1.52;100.00
48077;BME280;33854;57.708;12.008;2023-04-02T06:02:38;101537.53;;;-1.47;100.00
48077;BME280;33854;57.708;12.008;2023-04-02T06:05:12;101566.66;;;-1.39;100.00
48077;BME280;33854;57.708;12.008;2023-04-02T06:07:46;101577.72;;;-1.40;100.00
48077;BME280;33854;57.708;12.008;2023-04-02T06:10:21;101607.88;;;-1.22;100.00
48077;BME280;33854;57.708;12.008;2023-04-02T06:12:57;101627.69;;;-1.12;100.00
48077;BME280;33854;57.708;12.008;2023-04-02T06:15:28;101648.28;;;-1.04;100.00
48077;BME280;33854;57.708;12.008;2023-04-02T06:20:23;101683.56;;;-0.88;100.00
48077;BME280;33854;57.708;12.008;2023-04-02T06:22:52;101714.41;;;-0.82;100.00
48077;BME280;33854;57.708;12.008;2023-04-02T06:25:24;101726.50;;;-0.75;100.00
48077;BME280;33854;57.708;12.008;2023-04-02T06:27:53;101744.50;;;-0.72;100.00
48077;BME280;33854;57.708;12.008;2023-04-02T06:30:32;101758.28;;;-0.64;100.00
48077;BME280;33854;57.708;12.008;2023-04-02T06:33:00;101785.72;;;-0.57;100.00
48077;BME280;33854;57.708;12.008;2023-04-02T06:35:26;101798.66;;;-0.51;100.00
48077;BME280;33854;57.708;12.008;2023-04-02T06:37:53;101806.38;;;-0.48;100.00
48077;BME280;33854;57.708;12.008;2023-04-02T06:42:56;101849.47;;;-0.27;100.00
48077;BME280;33854;57.708;12.008;2023-04-02T06:45:29;101844.28;;;-0.30;100.00
48077;BME280;33854;57.708;12.008;2023-04-02T06:47:59;101889.06;;;-0.12;100.00
48077;BME280;33854;57.708;12.008;2023-04-02T06:50:56;101911.44;;;-0.03;100.00
48077;BME280;33854;57.708;12.008;2023-04-02T06:55:59;101955.28;;;0.11;100.00
48077;BME280;33854;57.708;12.008;2023-04-02T06:58:27;101975.94;;;0.18;100.00
48077;BME280;33854;57.708;12.008;2023-04-02T07:00:52;101994.88;;;0.25;100.00
48077;BME280;33854;57.708;12.008;2023-04-02T07:03:26;102030.88;;;0.29;100.00
48077;BME280;33854;57.708;12.008;2023-04-02T07:05:53;102034.38;;;0.33;100.00
48077;BME280;33854;57.708;12.008;2023-04-02T07:08:19;102059.44;;;0.46;100.00
48077;BME280;33854;57.708;12.008;2023-04-02T07:10:45;102066.38;;;0.53;100.00
48077;BME280;33854;57.708;12.008;2023-04-02T07:13:15;102106.69;;;0.57;100.00
48077;BME280;33854;57.708;12.008;2023-04-02T07:15:42;102112.06;;;0.71;100.00
48077;BME280;33854;57.708;12.008;2023-04-02T07:18:30;102107.78;;;0.73;100.00
48077;BME280;33854;57.708;12.008;2023-04-02T07:20:56;102134.47;;;0.79;100.00
48077;BME280;33854;57.708;12.008;2023-04-02T07:23:21;102123.19;;;0.71;100.00
48077;BME280;33854;57.708;12.008;2023-04-02T07:25:48;102144.94;;;0.93;100.00
48077;BME280;33854;57.708;12.008;2023-04-02T07:28:15;102163.81;;;0.93;100.00
48077;BME280;33854;57.708;12.008;2023-04-02T07:30:41;102169.00;;;0.98;100.00
48077;BME280;33854;57.708;12.008;2023-04-02T07:33:11;102193.94;;;1.03;100.00
48077;BME280;33854;57.708;12.008;2023-04-02T07:35:37;102196.66;;;1.12;100.00
48077;BME280;33854;57.708;12.008;2023-04-02T07:38:02;102194.25;;;1.22;100.00
48077;BME280;33854;57.708;12.008;2023-04-02T07:40:28;102212.34;;;1.28;100.00
48077;BME280;33854;57.708;12.008;2023-04-02T07:42:53;102197.97;;;1.40;100.00
48077;BME280;33854;57.708;12.008;2023-04-02T07:45:19;102211.84;;;1.51;100.00
48077;BME280;33854;57.708;12.008;2023-04-02T07:47:45;102211.06;;;1.57;100.00
48077;BME280;33854;57.708;12.008;2023-04-02T07:50:10;102220.59;;;1.62;100.00
48077;BME280;33854;57.708;12.008;2023-04-02T07:52:42;102231.72;;;1.60;100.00
48077;BME280;33854;57.708;12.008;2023-04-02T07:55:13;102237.81;;;1.69;100.00
48077;BME280;33854;57.708;12.008;2023-04-02T07:57:54;102241.28;;;1.70;100.00
48077;BME280;33854;57.708;12.008;2023-04-02T08:00:22;102252.53;;;1.78;100.00
48077;BME280;33854;57.708;12.008;2023-04-02T08:02:48;102254.38;;;1.85;100.00
48077;BME280;33854;57.708;12.008;2023-04-02T08:05:13;102248.47;;;1.94;100.00
48077;BME280;33854;57.708;12.008;2023-04-02T08:07:40;102258.91;;;2.03;100.00
48077;BME280;33854;57.708;12.008;2023-04-02T08:10:08;102255.50;;;2.07;100.00
48077;BME280;33854;57.708;12.008;2023-04-02T08:12:34;102252.94;;;2.07;100.00
48077;BME280;33854;57.708;12.008;2023-04-02T08:14:59;102259.97;;;2.21;100.00
48077;BME280;33854;57.708;12.008;2023-04-02T08:17:25;102270.47;;;2.37;100.00
48077;BME280;33854;57.708;12.008;2023-04-02T08:19:56;102269.69;;;2.41;100.00
48077;BME280;33854;57.708;12.008;2023-04-02T08:22:26;102262.91;;;2.49;100.00
48077;BME280;33854;57.708;12.008;2023-04-02T08:24:52;102276.78;;;2.64;100.00
48077;BME280;33854;57.708;12.008;2023-04-02T08:27:17;102259.69;;;2.69;100.00
48077;BME280;33854;57.708;12.008;2023-04-02T08:29:43;102273.50;;;2.76;100.00
48077;BME280;33854;57.708;12.008;2023-04-02T08:32:11;102275.34;;;2.89;100.00
48077;BME280;33854;57.708;12.008;2023-04-02T08:34:40;102292.72;;;3.07;100.00
48077;BME280;33854;57.708;12.008;2023-04-02T08:37:06;102289.34;;;3.14;100.00
48077;BME280;33854;57.708;12.008;2023-04-02T08:39:32;102294.50;;;3.14;100.00
48077;BME280;33854;57.708;12.008;2023-04-02T08:45:17;102304.00;;;3.18;100.00
48077;BME280;33854;57.708;12.008;2023-04-02T08:47:43;102311.03;;;3.34;100.00
48077;BME280;33854;57.708;12.008;2023-04-02T08:52:47;102307.69;;;3.44;100.00
48077;BME280;33854;57.708;12.008;2023-04-02T08:58:39;102312.09;;;3.59;100.00
48077;BME280;33854;57.708;12.008;2023-04-02T09:01:10;102306.16;;;3.72;100.00
48077;BME280;33854;57.708;12.008;2023-04-02T09:03:43;102325.13;;;3.77;100.00
48077;BME280;33854;57.708;12.008;2023-04-02T09:06:12;102322.56;;;3.80;100.00
48077;BME280;33854;57.708;12.008;2023-04-02T09:08:47;102329.59;;;3.96;100.00
48077;BME280;33854;57.708;12.008;2023-04-02T09:11:30;102325.34;;;4.07;100.00
48077;BME280;33854;57.708;12.008;2023-04-02T09:14:00;102335.78;;;4.28;100.00
48077;BME280;33854;57.708;12.008;2023-04-02T09:16:49;102341.88;;;4.41;100.00
48077;BME280;33854;57.708;12.008;2023-04-02T09:19:22;102342.78;;;4.53;100.00
48077;BME280;33854;57.708;12.008;2023-04-02T09:22:07;102350.63;;;4.67;100.00
48077;BME280;33854;57.708;12.008;2023-04-02T09:24:34;102341.09;;;4.63;100.00
48077;BME280;33854;57.708;12.008;2023-04-02T09:27:00;102352.34;;;4.67;100.00
48077;BME280;33854;57.708;12.008;2023-04-02T09:29:42;102360.09;;;4.67;100.00
48077;BME280;33854;57.708;12.008;2023-04-02T09:35:14;102365.34;;;4.89;100.00
48077;BME280;33854;57.708;12.008;2023-04-02T09:37:40;102363.63;;;4.97;100.00
48077;BME280;33854;57.708;12.008;2023-04-02T09:40:22;102374.88;;;5.01;100.00
48077;BME280;33854;57.708;12.008;2023-04-02T09:42:48;102367.13;;;5.11;100.00
48077;BME280;33854;57.708;12.008;2023-04-02T09:47:39;102361.09;;;5.06;100.00
48077;BME280;33854;57.708;12.008;2023-04-02T09:50:21;102379.22;;;5.23;100.00
48077;BME280;33854;57.708;12.008;2023-04-02T09:52:48;102377.50;;;5.24;100.00
48077;BME280;33854;57.708;12.008;2023-04-02T09:57:44;102387.03;;;5.38;100.00
48077;BME280;33854;57.708;12.008;2023-04-02T10:02:37;102391.38;;;5.42;100.00
48077;BME280;33854;57.708;12.008;2023-04-02T10:05:04;102384.47;;;5.55;100.00
48077;BME280;33854;57.708;12.008;2023-04-02T10:07:52;102374.97;;;5.48;100.00
48077;BME280;33854;57.708;12.008;2023-04-02T10:10:18;102387.91;;;5.61;90.18
48077;BME280;33854;57.708;12.008;2023-04-02T10:12:53;102391.34;;;5.60;90.85
48077;BME280;33854;57.708;12.008;2023-04-02T10:16:11;102399.16;;;5.65;93.23
48077;BME280;33854;57.708;12.008;2023-04-02T10:18:22;102405.16;;;5.68;93.95
48077;BME280;33854;57.708;12.008;2023-04-02T10:20:53;102400.00;;;5.73;94.12
48077;BME280;33854;57.708;12.008;2023-04-02T10:23:23;102401.72;;;5.69;94.27
48077;BME280;33854;57.708;12.008;2023-04-02T10:26:11;102410.38;;;5.76;93.72
48077;BME280;33854;57.708;12.008;2023-04-02T10:29:14;102409.56;;;5.88;93.70
48077;BME280;33854;57.708;12.008;2023-04-02T10:40:04;102419.88;;;6.24;94.94
48077;BME280;33854;57.708;12.008;2023-04-02T10:50:44;102431.09;;;6.43;92.81
48077;BME280;33854;57.708;12.008;2023-04-02T10:53:15;102410.31;;;6.59;94.29
48077;BME280;33854;57.708;12.008;2023-04-02T10:55:54;102434.47;;;6.76;93.00
48077;BME280;33854;57.708;12.008;2023-04-02T10:58:28;102419.72;;;6.83;93.14
48077;BME280;33854;57.708;12.008;2023-04-02T11:01:00;102417.09;;;6.94;93.32
48077;BME280;33854;57.708;12.008;2023-04-02T11:06:04;102430.91;;;6.96;90.96
48077;BME280;33854;57.708;12.008;2023-04-02T11:08:39;102414.50;;;6.86;89.17
48077;BME280;33854;57.708;12.008;2023-04-02T11:11:21;102431.81;;;6.88;87.93
48077;BME280;33854;57.708;12.008;2023-04-02T11:14:15;102438.66;;;7.06;88.70
48077;BME280;33854;57.708;12.008;2023-04-02T11:16:39;102438.63;;;7.12;89.49
48077;BME280;33854;57.708;12.008;2023-04-02T11:30:23;102446.31;;;7.29;82.67
48077;BME280;33854;57.708;12.008;2023-04-02T11:32:50;102438.50;;;7.35;82.60
48077;BME280;33854;57.708;12.008;2023-04-02T11:40:52;102434.97;;;7.51;79.85
48077;BME280;33854;57.708;12.008;2023-04-02T11:45:56;102458.25;;;7.63;77.87
48077;BME280;33854;57.708;12.008;2023-04-02T11:50:47;102473.94;;;7.46;75.67
48077;BME280;33854;57.708;12.008;2023-04-02T11:55:43;102452.75;;;8.06;72.96
48077;BME280;33854;57.708;12.008;2023-04-02T12:09:18;102481.81;;;9.29;63.35
48077;BME280;33854;57.708;12.008;2023-04-02T12:11:45;102476.41;;;9.43;61.71
48077;BME280;33854;57.708;12.008;2023-04-02T12:17:04;102469.44;;;10.01;58.85
48077;BME280;33854;57.708;12.008;2023-04-02T12:19:30;102475.75;;;10.42;58.21
48077;BME280;33854;57.708;12.008;2023-04-02T12:21:57;102478.13;;;10.54;56.32
48077;BME280;33854;57.708;12.008;2023-04-02T12:24:24;102461.72;;;10.92;54.28
48077;BME280;33854;57.708;12.008;2023-04-02T12:27:21;102473.88;;;11.35;52.44
48077;BME280;33854;57.708;12.008;2023-04-02T12:29:49;102472.69;;;11.10;50.50
48077;BME280;33854;57.708;12.008;2023-04-02T12:32:28;102475.06;;;11.21;49.52
48077;BME280;33854;57.708;12.008;2023-04-02T12:34:56;102479.66;;;11.50;50.56
48077;BME280;33854;57.708;12.008;2023-04-02T12:37:27;102475.00;;;12.00;48.56
48077;BME280;33854;57.708;12.008;2023-04-02T12:40:12;102482.31;;;12.55;46.58
48077;BME280;33854;57.708;12.008;2023-04-02T12:42:40;102480.09;;;13.03;45.56
48077;BME280;33854;57.708;12.008;2023-04-02T12:45:06;102472.41;;;12.97;43.00
48077;BME280;33854;57.708;12.008;2023-04-02T12:47:33;102478.81;;;13.20;44.23
48077;BME280;33854;57.708;12.008;2023-04-02T12:49:59;102471.34;;;12.74;42.80
48077;BME280;33854;57.708;12.008;2023-04-02T12:52:27;102473.28;;;12.98;43.54
48077;BME280;33854;57.708;12.008;2023-04-02T12:54:55;102476.13;;;13.21;41.96
48077;BME280;33854;57.708;12.008;2023-04-02T12:59:54;102468.63;;;13.94;41.21
48077;BME280;33854;57.708;12.008;2023-04-02T13:02:28;102468.72;;;14.17;39.58
48077;BME280;33854;57.708;12.008;2023-04-02T13:04:56;102466.84;;;14.20;39.90
48077;BME280;33854;57.708;12.008;2023-04-02T13:07:27;102477.00;;;14.05;38.90
48077;BME280;33854;57.708;12.008;2023-04-02T13:09:57;102468.03;;;14.63;39.26
48077;BME280;33854;57.708;12.008;2023-04-02T13:12:34;102471.72;;;15.05;38.04
48077;BME280;33854;57.708;12.008;2023-04-02T13:15:06;102473.69;;;15.23;38.15
48077;BME280;33854;57.708;12.008;2023-04-02T13:22:51;102478.88;;;14.52;38.07
48077;BME280;33854;57.708;12.008;2023-04-02T13:25:17;102474.16;;;15.33;37.54
48077;BME280;33854;57.708;12.008;2023-04-02T13:27:42;102477.03;;;15.50;36.92
48077;BME280;33854;57.708;12.008;2023-04-02T13:30:09;102477.31;;;15.19;36.46
48077;BME280;33854;57.708;12.008;2023-04-02T13:32:34;102483.91;;;15.31;35.94
48077;BME280;33854;57.708;12.008;2023-04-02T13:35:00;102488.06;;;15.60;35.54
48077;BME280;33854;57.708;12.008;2023-04-02T13:37:25;102482.81;;;15.60;35.10
48077;BME280;33854;57.708;12.008;2023-04-02T13:39:51;102476.31;;;15.68;34.36
48077;BME280;33854;57.708;12.008;2023-04-02T13:42:16;102464.97;;;16.10;33.59
48077;BME280;33854;57.708;12.008;2023-04-02T13:44:42;102485.19;;;15.43;34.26
48077;BME280;33854;57.708;12.008;2023-04-02T13:47:13;102485.56;;;15.10;34.97
48077;BME280;33854;57.708;12.008;2023-04-02T13:49:38;102488.41;;;15.04;35.55
48077;BME280;33854;57.708;12.008;2023-04-02T13:52:12;102487.78;;;15.89;34.58
48077;BME280;33854;57.708;12.008;2023-04-02T13:54:50;102478.41;;;15.60;32.94
48077;BME280;33854;57.708;12.008;2023-04-02T13:57:17;102492.22;;;16.09;33.44
48077;BME280;33854;57.708;12.008;2023-04-02T13:59:42;102492.31;;;16.47;32.94
48077;BME280;33854;57.708;12.008;2023-04-02T14:02:11;102485.78;;;16.36;32.66
48077;BME280;33854;57.708;12.008;2023-04-02T14:04:41;102484.63;;;16.83;32.51
48077;BME280;33854;57.708;12.008;2023-04-02T14:07:42;102491.75;;;17.01;31.88
48077;BME280;33854;57.708;12.008;2023-04-02T14:10:34;102484.47;;;17.06;35.10
48077;BME280;33854;57.708;12.008;2023-04-02T14:23:49;102468.88;;;18.28;32.95
48077;BME280;33854;57.708;12.008;2023-04-02T14:33:00;102487.16;;;18.84;30.37
48077;BME280;33854;57.708;12.008;2023-04-02T14:35:37;102490.19;;;18.94;31.18
48077;BME280;33854;57.708;12.008;2023-04-02T14:38:14;102483.81;;;19.29;30.17
48077;BME280;33854;57.708;12.008;2023-04-02T14:40:51;102487.09;;;19.50;29.80
48077;BME280;33854;57.708;12.008;2023-04-02T14:43:31;102483.03;;;19.60;28.96
48077;BME280;33854;57.708;12.008;2023-04-02T14:46:05;102499.34;;;19.35;28.61
48077;BME280;33854;57.708;12.008;2023-04-02T14:51:26;102495.97;;;19.49;28.58
48077;BME280;33854;57.708;12.008;2023-04-02T14:56:51;102494.69;;;20.03;27.34
48077;BME280;33854;57.708;12.008;2023-04-02T15:01:49;102497.63;;;20.12;28.89
48077;BME280;33854;57.708;12.008;2023-04-02T15:04:24;102495.38;;;20.20;27.35
48077;BME280;33854;57.708;12.008;2023-04-02T15:06:56;102495.78;;;20.58;27.00
48077;BME280;33854;57.708;12.008;2023-04-02T15:09:36;102503.88;;;20.71;25.40
48077;BME280;33854;57.708;12.008;2023-04-02T15:14:48;102501.78;;;20.76;25.89
48077;BME280;33854;57.708;12.008;2023-04-02T15:17:16;102510.69;;;21.59;25.88
48077;BME280;33854;57.708;12.008;2023-04-02T15:19:42;102502.47;;;21.36;25.68
48077;BME280;33854;57.708;12.008;2023-04-02T15:30:38;102525.16;;;21.13;24.30
48077;BME280;33854;57.708;12.008;2023-04-02T15:33:43;102525.28;;;21.12;23.46
48077;BME280;33854;57.708;12.008;2023-04-02T15:36:32;102531.00;;;21.04;23.87
48077;BME280;33854;57.708;12.008;2023-04-02T15:44:29;102526.38;;;21.36;24.66
48077;BME280;33854;57.708;12.008;2023-04-02T15:47:47;102538.78;;;21.64;24.22
48077;BME280;33854;57.708;12.008;2023-04-02T15:53:19;102533.72;;;21.73;23.92
48077;BME280;33854;57.708;12.008;2023-04-02T15:58:49;102539.59;;;21.23;24.70
48077;BME280;33854;57.708;12.008;2023-04-02T16:01:42;102548.28;;;20.97;24.94
48077;BME280;33854;57.708;12.008;2023-04-02T16:07:18;102553.91;;;20.17;24.78
48077;BME280;33854;57.708;12.008;2023-04-02T16:10:03;102559.19;;;20.33;25.01
48077;BME280;33854;57.708;12.008;2023-04-02T16:12:32;102564.19;;;20.53;25.28
48077;BME280;33854;57.708;12.008;2023-04-02T16:15:09;102562.53;;;21.10;25.76
48077;BME280;33854;57.708;12.008;2023-04-02T16:17:44;102557.97;;;20.68;25.11
48077;BME280;33854;57.708;12.008;2023-04-02T16:20:38;102567.38;;;20.74;24.93
48077;BME280;33854;57.708;12.008;2023-04-02T16:23:10;102572.03;;;20.25;25.10
48077;BME280;33854;57.708;12.008;2023-04-02T16:28:54;102571.63;;;19.85;25.75
48077;BME280;33854;57.708;12.008;2023-04-02T16:31:33;102578.06;;;19.49;25.96